createdAt,value
2023-04-20T00:02:36.000Z,21.58
2023-04-20T00:07:35.000Z,18.11
2023-04-20T00:12:35.000Z,18.23
2023-04-20T00:17:36.000Z,19.34
2023-04-20T00:22:35.000Z,18.64
2023-04-20T00:27:35.000Z,20.15
2023-04-20T00:32:36.000Z,20.33
2023-04-20T00:37:35.000Z,26.51
2023-04-20T00:42:35.000Z,24.28
2023-04-20T00:47:36.000Z,19.41
2023-04-20T00:52:35.000Z,20.2
2023-04-20T00:57:35.000Z,20.2
2023-04-20T01:02:36.000Z,24.17
2023-04-20T01:07:35.000Z,23.69
2023-04-20T01:12:35.000Z,28.29
2023-04-20T01:17:35.000Z,32.37
2023-04-20T01:22:35.000Z,27.92
2023-04-20T01:27:35.000Z,18.06
2023-04-20T01:32:35.000Z,19.77
2023-04-20T01:37:35.000Z,19.48
2023-04-20T01:42:35.000Z,21.73
2023-04-20T01:47:35.000Z,19.88
2023-04-20T01:52:36.000Z,20.73
2023-04-20T01:57:35.000Z,20.18
2023-04-20T02:02:36.000Z,21.47
2023-04-20T02:07:35.000Z,21.47
2023-04-20T02:12:36.000Z,28.09
2023-04-20T02:17:36.000Z,34.53
2023-04-20T02:22:36.000Z,21.3
2023-04-20T02:27:36.000Z,21.17
2023-04-20T02:32:35.000Z,22.65
2023-04-20T02:37:36.000Z,25.33
2023-04-20T02:42:35.000Z,23.08
2023-04-20T02:47:36.000Z,23.02
2023-04-20T02:52:36.000Z,23.26
2023-04-20T02:57:36.000Z,26.44
2023-04-20T03:02:36.000Z,30.36
2023-04-20T03:07:36.000Z,27.84
2023-04-20T03:12:36.000Z,24.87
2023-04-20T03:17:36.000Z,24.31
2023-04-20T03:22:36.000Z,24.31
2023-04-20T03:27:35.000Z,27.01
2023-04-20T03:32:36.000Z,26.41
2023-04-20T03:37:36.000Z,26.36
2023-04-20T03:42:35.000Z,25.78
2023-04-20T03:47:36.000Z,26.26
2023-04-20T03:52:35.000Z,26.1
2023-04-20T03:57:36.000Z,27.26
2023-04-20T04:02:35.000Z,28.6
2023-04-20T04:07:36.000Z,26.23
2023-04-20T04:12:35.000Z,26.6
2023-04-20T04:17:35.000Z,26.46
2023-04-20T04:22:37.000Z,26.94
2023-04-20T04:27:36.000Z,27.74
2023-04-20T04:32:35.000Z,26.16
2023-04-20T04:37:35.000Z,26.16
2023-04-20T04:42:36.000Z,28.33
2023-04-20T04:47:36.000Z,27.32
2023-04-20T04:52:35.000Z,27.44
2023-04-20T04:57:36.000Z,26.4
2023-04-20T05:02:36.000Z,28.07
2023-04-20T05:07:36.000Z,27.31
2023-04-20T05:12:35.000Z,26.11
2023-04-20T05:17:36.000Z,25.97
2023-04-20T05:22:36.000Z,25.56
2023-04-20T05:27:35.000Z,26.18
2023-04-20T05:32:35.000Z,24.94
2023-04-20T05:37:36.000Z,24.84
2023-04-20T05:42:36.000Z,22.69
2023-04-20T05:47:36.000Z,22.09
2023-04-20T05:52:35.000Z,22.09
2023-04-20T05:57:35.000Z,20.55
2023-04-20T06:02:36.000Z,21.58
2023-04-20T06:07:35.000Z,24.09
2023-04-20T06:12:36.000Z,22.24
2023-04-20T06:17:36.000Z,21.03
2023-04-20T06:22:36.000Z,20.43
2023-04-20T06:27:36.000Z,19.33
2023-04-20T06:32:36.000Z,18.45
2023-04-20T06:37:35.000Z,18
2023-04-20T06:42:36.000Z,18.63
2023-04-20T06:47:36.000Z,18.63
2023-04-20T06:52:36.000Z,17.23
2023-04-20T06:57:36.000Z,16.48
2023-04-20T07:02:35.000Z,14.85
2023-04-20T07:07:36.000Z,15.43
2023-04-20T07:12:36.000Z,15.29
2023-04-20T07:17:37.000Z,14.43
2023-04-20T07:22:35.000Z,12.9
2023-04-20T07:27:36.000Z,13.29
2023-04-20T07:32:36.000Z,13.07
2023-04-20T07:37:37.000Z,12.02
2023-04-20T07:42:36.000Z,10.71
2023-04-20T07:47:35.000Z,11.43
2023-04-20T07:52:36.000Z,10.31
2023-04-20T07:57:35.000Z,10.89
2023-04-20T08:02:35.000Z,10.89
2023-04-20T08:07:36.000Z,10.18
2023-04-20T08:12:36.000Z,9.41
2023-04-20T08:17:35.000Z,8.79
2023-04-20T08:22:36.000Z,10.15
2023-04-20T08:27:36.000Z,9.54
2023-04-20T08:32:37.000Z,9.47
2023-04-20T08:37:35.000Z,10.33
2023-04-20T08:42:36.000Z,11.04
2023-04-20T08:47:36.000Z,8.92
2023-04-20T08:52:36.000Z,8.85
2023-04-20T08:57:36.000Z,9.36
2023-04-20T09:02:36.000Z,9.47
2023-04-20T09:07:35.000Z,10.63
2023-04-20T09:12:36.000Z,12.33
2023-04-20T09:17:36.000Z,12.33
2023-04-20T09:22:35.000Z,11.07
2023-04-20T09:27:35.000Z,10.33
2023-04-20T09:32:36.000Z,9.9
2023-04-20T09:37:35.000Z,11.62
2023-04-20T09:42:35.000Z,10.68
2023-04-20T09:47:35.000Z,11.22
2023-04-20T09:52:36.000Z,11.42
2023-04-20T09:57:36.000Z,12.28
2023-04-20T10:02:36.000Z,11.3
2023-04-20T10:07:36.000Z,11.12
2023-04-20T10:12:36.000Z,9.8
2023-04-20T10:17:38.000Z,11.87
2023-04-20T10:22:35.000Z,12.6
2023-04-20T10:27:36.000Z,10.76
2023-04-20T10:32:36.000Z,10.76
2023-04-20T10:37:36.000Z,12.85
2023-04-20T10:42:35.000Z,12.84
2023-04-20T10:47:38.000Z,12.9
2023-04-20T10:52:36.000Z,12.14
2023-04-20T10:57:36.000Z,14.51
2023-04-20T11:02:36.000Z,14.45
2023-04-20T11:07:36.000Z,16.49
2023-04-20T11:12:35.000Z,14.61
2023-04-20T11:17:35.000Z,19.48
2023-04-20T11:22:36.000Z,15.94
2023-04-20T11:27:35.000Z,13.28
2023-04-20T11:32:36.000Z,13.3
2023-04-20T11:37:43.000Z,13.27
2023-04-20T11:42:35.000Z,13.27
2023-04-20T11:47:35.000Z,13.06
2023-04-20T11:52:35.000Z,12.66
2023-04-20T11:57:36.000Z,12.46
2023-04-20T12:02:36.000Z,13.36
2023-04-20T12:07:36.000Z,11.92
2023-04-20T12:12:36.000Z,12.19
2023-04-20T12:17:35.000Z,14.85
2023-04-20T12:22:35.000Z,15.68
2023-04-20T12:27:35.000Z,13.19
2023-04-20T12:32:36.000Z,12.82
2023-04-20T12:37:35.000Z,12.84
2023-04-20T12:42:35.000Z,14.64
2023-04-20T12:47:36.000Z,12.97
2023-04-20T12:52:36.000Z,12.97
2023-04-20T12:57:35.000Z,13.07
2023-04-20T13:02:35.000Z,13.21
2023-04-20T13:07:36.000Z,13.43
2023-04-20T13:12:35.000Z,13.64
2023-04-20T13:17:35.000Z,14.35
2023-04-20T13:22:36.000Z,13.5
2023-04-20T13:27:36.000Z,14.06
2023-04-20T13:32:36.000Z,12.58
2023-04-20T13:37:35.000Z,11.97
2023-04-20T13:42:35.000Z,13.72
2023-04-20T13:47:36.000Z,14.54
2023-04-20T13:52:36.000Z,15.57
2023-04-20T13:57:36.000Z,15.13
2023-04-20T14:02:35.000Z,13.71
2023-04-20T14:07:35.000Z,13.71
2023-04-20T14:12:36.000Z,14.27
2023-04-20T14:17:36.000Z,14.53
2023-04-20T14:22:35.000Z,14.85
2023-04-20T14:27:36.000Z,14.09
2023-04-20T14:32:35.000Z,15.96
2023-04-20T14:37:35.000Z,16.64
2023-04-20T14:42:35.000Z,17.51
2023-04-20T14:47:36.000Z,17.47
2023-04-20T14:52:35.000Z,22.13
2023-04-20T14:57:35.000Z,19.56
2023-04-20T15:02:36.000Z,16.14
2023-04-20T15:07:35.000Z,17.06
2023-04-20T15:12:36.000Z,27.92
2023-04-20T15:17:35.000Z,27.92
2023-04-20T15:22:35.000Z,26.72
2023-04-20T15:27:35.000Z,20.81
2023-04-20T15:32:36.000Z,23.31
2023-04-20T15:37:35.000Z,24.45
2023-04-20T15:42:36.000Z,26.83
2023-04-20T15:47:36.000Z,21.86
2023-04-20T15:52:36.000Z,23.37
2023-04-20T15:57:36.000Z,26.59
2023-04-20T16:02:35.000Z,25.2
2023-04-20T16:07:36.000Z,28.04
2023-04-20T16:12:35.000Z,25.98
2023-04-20T16:17:35.000Z,25.51
2023-04-20T16:22:35.000Z,28.07
2023-04-20T16:27:35.000Z,28.07
2023-04-20T16:32:35.000Z,26.1
2023-04-20T16:37:36.000Z,26.18
2023-04-20T16:42:36.000Z,26.63
2023-04-20T16:47:35.000Z,29.22
2023-04-20T16:52:35.000Z,31.56
2023-04-20T16:57:35.000Z,34.4
2023-04-20T17:02:36.000Z,37.53
2023-04-20T17:07:35.000Z,37.48
2023-04-20T17:12:36.000Z,32.26
2023-04-20T17:17:36.000Z,32.92
2023-04-20T17:22:36.000Z,32.81
2023-04-20T17:27:35.000Z,33.07
2023-04-20T17:32:35.000Z,30.44
2023-04-20T17:37:36.000Z,32.4
2023-04-20T17:42:35.000Z,32.4
2023-04-20T17:47:36.000Z,30.12
2023-04-20T17:52:35.000Z,29.97
2023-04-20T17:57:35.000Z,28.62
2023-04-20T18:02:36.000Z,29.23
2023-04-20T18:07:35.000Z,30.19
2023-04-20T18:12:35.000Z,29.03
2023-04-20T18:17:35.000Z,27.98
2023-04-20T18:22:36.000Z,28.04
2023-04-20T18:27:35.000Z,27.26
2023-04-20T18:32:36.000Z,27.41
2023-04-20T18:37:35.000Z,30.54
2023-04-20T18:42:36.000Z,30.26
2023-04-20T18:47:36.000Z,29.92
2023-04-20T18:52:36.000Z,29.92
2023-04-20T18:57:36.000Z,29.02
2023-04-20T19:02:36.000Z,28.8
2023-04-20T19:07:35.000Z,27.92
2023-04-20T19:12:35.000Z,26.96
2023-04-20T19:17:35.000Z,28.13
2023-04-20T19:22:35.000Z,27.77
2023-04-20T19:27:35.000Z,28.92
2023-04-20T19:32:36.000Z,28.51
2023-04-20T19:37:35.000Z,30.99
2023-04-20T19:42:36.000Z,33.99
2023-04-20T19:47:36.000Z,30.43
2023-04-20T19:52:35.000Z,31.85
2023-04-20T19:57:36.000Z,30.33
2023-04-20T20:02:37.000Z,29.97
2023-04-20T20:07:36.000Z,29.97
2023-04-20T20:12:35.000Z,29.58
2023-04-20T20:17:35.000Z,28.06
2023-04-20T20:22:35.000Z,28.21
2023-04-20T20:27:35.000Z,26.08
2023-04-20T20:32:36.000Z,30.07
2023-04-20T20:37:36.000Z,32.27
2023-04-20T20:42:35.000Z,31.78
2023-04-20T20:47:35.000Z,26.4
2023-04-20T20:52:36.000Z,26.57
2023-04-20T20:57:35.000Z,29.01
2023-04-20T21:02:35.000Z,28.2
2023-04-20T21:07:36.000Z,29.53
2023-04-20T21:12:35.000Z,27.82
2023-04-20T21:17:36.000Z,27.82
2023-04-20T21:22:35.000Z,29.07
2023-04-20T21:27:35.000Z,29.11
2023-04-20T21:32:36.000Z,28.53
2023-04-20T21:37:36.000Z,30.36
2023-04-20T21:42:36.000Z,32.9
2023-04-20T21:47:36.000Z,29.59
2023-04-20T21:52:35.000Z,29.58
2023-04-20T21:57:35.000Z,41.76
2023-04-20T22:02:36.000Z,35.76
2023-04-20T22:07:36.000Z,35.33
2023-04-20T22:12:49.000Z,33.97
2023-04-20T22:17:34.000Z,30.53
2023-04-20T22:22:35.000Z,33.22
2023-04-20T22:27:35.000Z,26.71
2023-04-20T22:32:35.000Z,26.71
2023-04-20T22:37:36.000Z,26.87
2023-04-20T22:42:35.000Z,28.55
2023-04-20T22:47:35.000Z,30.82
2023-04-20T22:52:35.000Z,32.47
2023-04-20T22:57:36.000Z,31.11
2023-04-20T23:02:36.000Z,33.14
2023-04-20T23:07:35.000Z,29.94
2023-04-20T23:12:36.000Z,25.05
2023-04-20T23:17:36.000Z,26.69
2023-04-20T23:22:35.000Z,26.21
2023-04-20T23:27:35.000Z,23.96
2023-04-20T23:32:35.000Z,23.03
2023-04-20T23:37:35.000Z,23.03
2023-04-20T23:42:36.000Z,22.74
2023-04-20T23:47:35.000Z,22.45
2023-04-20T23:52:35.000Z,22.06
2023-04-20T23:57:35.000Z,22.43
